createdAt,value
2022-11-29T00:00:27.988Z,28.940000
2022-11-29T00:05:31.919Z,28.940000
2022-11-29T00:10:35.658Z,28.772000
2022-11-29T00:15:17.685Z,28.760000
2022-11-29T00:20:21.756Z,28.580000
2022-11-29T00:25:26.002Z,28.554286
2022-11-29T00:30:30.279Z,28.400000
2022-11-29T00:35:33.564Z,28.400000
2022-11-29T00:40:16.796Z,28.340000
2022-11-29T00:45:21.503Z,28.220000
2022-11-29T00:50:24.322Z,28.220000
2022-11-29T00:55:28.084Z,28.076000
2022-11-29T01:00:31.487Z,28.040000
2022-11-29T01:05:34.492Z,27.980000
2022-11-29T01:10:17.759Z,27.956000
2022-11-29T01:15:22.620Z,28.040000
2022-11-29T01:20:25.982Z,27.992000
2022-11-29T01:25:29.585Z,28.040000
2022-11-29T01:30:34.633Z,28.040000
2022-11-29T01:35:18.497Z,27.980000
2022-11-29T01:40:22.913Z,27.860000
2022-11-29T01:45:26.524Z,27.860000
2022-11-29T01:50:30.794Z,27.860000
2022-11-29T01:55:33.908Z,27.692000
2022-11-29T02:00:17.696Z,27.452000
2022-11-29T02:05:21.585Z,27.248000
2022-11-29T02:10:25.439Z,27.140000
2022-11-29T02:15:28.784Z,27.356000
2022-11-29T02:20:31.592Z,27.500000
2022-11-29T02:25:34.292Z,27.452000
2022-11-29T02:30:17.284Z,27.176000
2022-11-29T02:35:20.198Z,26.972000
2022-11-29T02:40:23.867Z,26.895714
2022-11-29T02:45:26.929Z,26.708000
2022-11-29T02:50:31.259Z,26.540000
2022-11-29T02:55:34.291Z,26.600000
2022-11-29T03:00:18.221Z,26.372000
2022-11-29T03:05:22.406Z,26.252857
2022-11-29T03:10:26.908Z,26.420000
2022-11-29T03:15:29.997Z,26.420000
2022-11-29T03:20:33.101Z,26.540000
2022-11-29T03:25:35.621Z,26.600000
2022-11-29T03:30:20.389Z,26.600000
2022-11-29T03:35:22.143Z,26.420000
2022-11-29T03:40:25.248Z,26.504000
2022-11-29T03:45:28.628Z,26.552000
2022-11-29T03:50:32.115Z,26.504000
2022-11-29T03:55:34.781Z,26.432000
2022-11-29T04:00:17.305Z,26.420000
2022-11-29T04:05:20.035Z,26.504000
2022-11-29T04:10:23.018Z,26.522857
2022-11-29T04:15:26.250Z,26.600000
2022-11-29T04:20:29.406Z,26.732000
2022-11-29T04:25:32.413Z,26.804000
2022-11-29T04:30:16.984Z,26.960000
2022-11-29T04:35:21.502Z,26.960000
2022-11-29T04:40:25.181Z,27.088571
2022-11-29T04:45:28.123Z,27.140000
2022-11-29T04:50:31.218Z,26.996000
2022-11-29T04:55:35.690Z,27.032000
2022-11-29T05:00:17.207Z,27.140000
2022-11-29T05:05:22.275Z,27.248000
2022-11-29T05:10:26.259Z,27.320000
2022-11-29T05:15:28.144Z,27.320000
2022-11-29T05:20:31.607Z,27.476000
2022-11-29T05:25:35.618Z,27.320000
2022-11-29T05:30:19.478Z,27.428000
2022-11-29T05:35:24.272Z,27.500000
2022-11-29T05:40:27.161Z,27.596000
2022-11-29T05:45:30.545Z,27.500000
2022-11-29T05:50:33.542Z,27.572000
2022-11-29T05:55:17.392Z,27.680000
2022-11-29T06:00:21.256Z,27.680000
2022-11-29T06:05:22.835Z,27.680000
2022-11-29T06:10:25.926Z,27.680000
2022-11-29T06:15:30.044Z,27.680000
2022-11-29T06:20:34.873Z,27.632000
2022-11-29T06:25:18.652Z,27.500000
2022-11-29T06:30:21.789Z,27.500000
2022-11-29T06:35:28.726Z,27.500000
2022-11-29T06:40:35.315Z,27.500000
2022-11-29T06:45:19.485Z,27.368000
2022-11-29T06:50:22.387Z,27.320000
2022-11-29T06:55:26.174Z,27.440000
2022-11-29T07:00:29.490Z,27.764000
2022-11-29T07:05:33.073Z,27.860000
2022-11-29T07:10:16.731Z,27.620000
2022-11-29T07:15:20.125Z,27.092000
2022-11-29T07:20:22.817Z,26.960000
2022-11-29T07:25:25.611Z,26.960000
2022-11-29T07:30:28.870Z,26.960000
2022-11-29T07:35:34.085Z,26.804000
2022-11-29T07:40:16.237Z,26.672000
2022-11-29T07:45:21.808Z,26.600000
2022-11-29T07:50:22.594Z,26.600000
2022-11-29T07:55:26.838Z,26.600000
2022-11-29T08:00:30.504Z,26.600000
2022-11-29T08:05:35.956Z,26.444000
2022-11-29T08:10:17.225Z,26.420000
2022-11-29T08:15:20.098Z,26.444000
2022-11-29T08:20:23.047Z,26.664286
2022-11-29T08:25:26.165Z,26.384000
2022-11-29T08:30:29.032Z,26.084000
2022-11-29T08:35:32.821Z,26.060000
2022-11-29T08:40:36.338Z,26.060000
2022-11-29T08:45:20.207Z,25.448000
2022-11-29T08:50:23.675Z,25.172857
2022-11-29T08:55:27.840Z,25.388000
2022-11-29T09:00:30.669Z,25.496000
2022-11-29T09:05:35.226Z,25.520000
2022-11-29T09:10:17.726Z,25.544000
2022-11-29T09:15:22.633Z,25.558571
2022-11-29T09:20:25.971Z,25.772000
2022-11-29T09:25:29.015Z,25.772000
2022-11-29T09:30:32.372Z,25.556000
2022-11-29T09:35:16.237Z,25.520000
2022-11-29T09:40:20.950Z,25.520000
2022-11-29T09:45:24.553Z,25.520000
2022-11-29T09:50:26.927Z,25.520000
2022-11-29T09:55:29.740Z,25.352000
2022-11-29T10:00:32.995Z,25.160000
2022-11-29T10:05:16.205Z,25.160000
2022-11-29T10:10:20.781Z,24.872000
2022-11-29T10:15:23.057Z,24.645714
2022-11-29T10:20:26.232Z,24.488000
2022-11-29T10:25:29.657Z,24.380000
2022-11-29T10:30:32.306Z,24.260000
2022-11-29T10:35:36.271Z,24.236000
2022-11-29T10:40:18.739Z,24.080000
2022-11-29T10:45:22.161Z,24.212000
2022-11-29T10:50:25.501Z,24.697143
2022-11-29T10:55:29.069Z,24.980000
2022-11-29T11:00:32.081Z,25.136000
2022-11-29T11:05:35.693Z,25.160000
2022-11-29T11:10:20.132Z,25.160000
2022-11-29T11:15:23.757Z,25.160000
2022-11-29T11:20:26.232Z,25.340000
2022-11-29T11:25:30.680Z,25.340000
2022-11-29T11:30:34.256Z,25.340000
2022-11-29T11:35:18.525Z,25.172000
2022-11-29T11:40:22.182Z,24.992000
2022-11-29T11:45:23.565Z,24.787143
2022-11-29T11:50:26.774Z,24.620000
2022-11-29T11:55:29.135Z,24.620000
2022-11-29T12:00:55.777Z,24.620000
2022-11-29T12:05:16.011Z,24.728000
2022-11-29T12:10:21.085Z,24.932000
2022-11-29T12:15:23.200Z,25.070000
2022-11-29T12:20:26.367Z,24.968000
2022-11-29T12:25:29.536Z,24.452000
2022-11-29T12:30:33.040Z,24.260000
2022-11-29T12:35:18.992Z,24.440000
2022-11-29T12:40:19.424Z,24.428000
2022-11-29T12:45:22.585Z,24.208571
2022-11-29T12:50:26.782Z,24.260000
2022-11-29T12:55:30.319Z,24.260000
2022-11-29T13:00:34.154Z,24.116000
2022-11-29T13:05:17.809Z,24.056000
2022-11-29T13:10:21.604Z,23.771429
2022-11-29T13:15:25.111Z,23.996000
2022-11-29T13:20:30.163Z,24.308000
2022-11-29T13:25:33.481Z,24.440000
2022-11-29T13:30:16.302Z,24.152000
2022-11-29T13:35:19.409Z,24.164000
2022-11-29T13:40:22.864Z,24.350000
2022-11-29T13:45:26.779Z,24.092000
2022-11-29T13:50:30.636Z,24.008000
2022-11-29T13:55:35.014Z,23.972000
2022-11-29T14:00:19.689Z,24.248000
2022-11-29T14:05:22.735Z,24.002857
2022-11-29T14:10:28.993Z,23.432000
2022-11-29T14:15:31.886Z,23.360000
2022-11-29T14:20:37.476Z,23.000000
2022-11-29T14:25:49.163Z,22.916000
2022-11-29T14:30:23.348Z,22.678571
2022-11-29T14:35:27.190Z,22.592000
2022-11-29T14:40:32.498Z,22.640000
2022-11-29T14:45:34.944Z,22.640000
2022-11-29T14:50:19.980Z,22.484000
2022-11-29T14:55:25.122Z,22.395714
2022-11-29T15:00:29.693Z,22.412000
2022-11-29T15:05:32.348Z,22.772000
2022-11-29T15:10:35.265Z,22.532000
2022-11-29T15:15:18.142Z,22.028000
2022-11-29T15:20:21.797Z,21.584000
2022-11-29T15:25:25.442Z,21.380000
2022-11-29T15:30:31.860Z,21.476000
2022-11-29T15:35:35.316Z,21.320000
2022-11-29T15:40:19.044Z,21.140000
2022-11-29T15:45:23.411Z,20.878571
2022-11-29T15:50:25.289Z,20.732000
2022-11-29T15:55:29.780Z,21.164000
2022-11-29T16:00:46.437Z,22.088000
2022-11-29T16:05:17.593Z,22.808000
2022-11-29T16:10:21.146Z,23.696000
2022-11-29T16:15:24.965Z,27.410000
2022-11-29T16:20:28.852Z,27.752000
2022-11-29T16:25:37.343Z,26.876000
2022-11-29T16:30:35.863Z,26.732000
2022-11-29T16:35:19.418Z,27.440000
2022-11-29T16:40:22.263Z,27.860000
2022-11-29T16:45:27.289Z,28.268000
2022-11-29T16:50:29.961Z,28.844000
2022-11-29T16:55:34.141Z,29.816000
2022-11-29T17:00:18.480Z,29.360000
2022-11-29T17:05:21.719Z,28.532000
2022-11-29T17:10:26.211Z,28.091429
2022-11-29T17:15:29.104Z,27.956000
2022-11-29T17:20:32.033Z,28.184000
2022-11-29T17:25:17.469Z,28.136000
2022-11-29T17:30:20.874Z,28.088000
2022-11-29T17:35:24.424Z,26.471429
2022-11-29T17:40:28.746Z,25.700000
2022-11-29T17:45:32.617Z,25.856000
2022-11-29T17:50:17.044Z,26.276000
2022-11-29T17:55:28.236Z,26.264000
2022-11-29T18:00:24.275Z,26.368571
2022-11-29T18:05:34.163Z,26.468000
2022-11-29T18:10:31.911Z,26.564000
2022-11-29T18:15:36.589Z,26.972000
2022-11-29T18:20:20.624Z,27.236000
2022-11-29T18:25:39.782Z,27.397143
2022-11-29T18:30:28.605Z,27.380000
2022-11-29T18:35:31.668Z,27.428000
2022-11-29T18:40:16.102Z,27.512000
2022-11-29T18:45:22.496Z,27.236000
2022-11-29T18:50:24.686Z,27.268571
2022-11-29T18:55:28.982Z,27.464000
2022-11-29T19:00:32.160Z,28.016000
2022-11-29T19:05:16.327Z,28.124000
2022-11-29T19:10:20.182Z,28.040000
2022-11-29T19:15:22.688Z,28.721429
2022-11-29T19:20:26.977Z,29.780000
2022-11-29T19:25:30.455Z,28.304000
2022-11-29T19:30:33.987Z,28.016000
2022-11-29T19:35:16.608Z,28.232000
2022-11-29T19:40:19.069Z,27.740000
2022-11-29T19:45:24.151Z,28.682857
2022-11-29T19:50:29.805Z,28.880000
2022-11-29T19:55:31.610Z,28.700000
2022-11-29T20:00:35.877Z,29.060000
2022-11-29T20:05:20.604Z,29.384000
2022-11-29T20:10:25.009Z,28.477143
2022-11-29T20:15:31.055Z,28.496000
2022-11-29T20:20:32.801Z,28.472000
2022-11-29T20:25:16.206Z,27.872000
2022-11-29T20:30:19.535Z,27.572000
2022-11-29T20:35:23.270Z,28.438571
2022-11-29T20:40:27.249Z,28.532000
2022-11-29T20:45:31.016Z,28.268000
2022-11-29T20:50:37.250Z,28.676000
2022-11-29T20:55:32.498Z,29.094286
2022-11-29T21:00:24.368Z,29.168000
2022-11-29T21:05:27.317Z,29.624000
2022-11-29T21:10:31.475Z,29.480000
2022-11-29T21:15:35.498Z,29.528000
2022-11-29T21:20:18.225Z,30.080000
2022-11-29T21:25:22.501Z,29.621429
2022-11-29T21:30:27.940Z,30.104000
2022-11-29T21:35:32.617Z,30.392000
2022-11-29T21:40:36.048Z,30.692000
2022-11-29T21:45:18.911Z,30.692000
2022-11-29T21:50:22.122Z,30.824000
2022-11-29T21:55:32.060Z,31.074286
2022-11-29T22:00:35.978Z,31.352000
2022-11-29T22:05:34.604Z,32.024000
2022-11-29T22:10:18.556Z,31.220000
2022-11-29T22:15:25.039Z,30.560000
2022-11-29T22:20:27.350Z,30.860000
2022-11-29T22:25:29.831Z,31.124000
2022-11-29T22:30:33.644Z,30.812000
2022-11-29T22:35:17.897Z,31.208000
2022-11-29T22:40:20.133Z,31.052000
2022-11-29T22:45:23.485Z,30.572857
2022-11-29T22:50:27.533Z,30.464000
2022-11-29T22:55:32.046Z,30.020000
2022-11-29T23:00:16.403Z,29.828000
2022-11-29T23:05:20.880Z,29.672000
2022-11-29T23:10:25.468Z,29.775714
2022-11-29T23:15:27.984Z,29.120000
2022-11-29T23:20:31.876Z,28.796000
2022-11-29T23:25:37.958Z,28.004000
2022-11-29T23:30:19.780Z,27.416000
2022-11-29T23:35:24.755Z,27.140000
2022-11-29T23:40:29.000Z,27.296000
2022-11-29T23:45:32.458Z,27.404000
2022-11-29T23:50:17.491Z,27.248000
2022-11-29T23:55:19.888Z,26.840000
